createdAt,value
2022-10-05T00:00:50.125Z,63.10
2022-10-05T00:03:18.215Z,63.40
2022-10-05T00:05:47.370Z,63.90
2022-10-05T00:08:18.630Z,63.20
2022-10-05T00:10:48.800Z,62.60
2022-10-05T00:13:20.349Z,63.00
2022-10-05T00:15:49.165Z,63.20
2022-10-05T00:18:18.804Z,64.10
2022-10-05T00:20:48.327Z,62.90
2022-10-05T00:23:20.857Z,62.80
2022-10-05T00:25:50.152Z,64.00
2022-10-05T00:28:22.444Z,63.80
2022-10-05T00:30:50.394Z,63.10
2022-10-05T00:33:18.228Z,63.80
2022-10-05T00:35:46.154Z,63.60
2022-10-05T00:38:14.080Z,64.40
2022-10-05T00:41:01.804Z,64.60
2022-10-05T00:43:57.845Z,65.00
2022-10-05T00:46:32.189Z,65.40
2022-10-05T00:49:06.998Z,65.40
2022-10-05T00:51:37.342Z,65.80
2022-10-05T00:54:20.937Z,66.80
2022-10-05T00:57:10.649Z,65.80
2022-10-05T00:59:51.357Z,66.70
2022-10-05T01:02:26.490Z,66.70
2022-10-05T01:04:59.197Z,65.20
2022-10-05T01:07:33.695Z,63.90
2022-10-05T01:10:10.615Z,62.90
2022-10-05T01:12:49.866Z,62.30
2022-10-05T01:15:24.783Z,63.30
2022-10-05T01:17:58.227Z,62.30
2022-10-05T01:20:37.464Z,62.30
2022-10-05T01:23:30.179Z,63.80
2022-10-05T01:26:22.620Z,64.20
2022-10-05T01:28:58.347Z,64.80
2022-10-05T01:31:33.848Z,66.20
2022-10-05T01:34:11.715Z,64.70
2022-10-05T01:36:46.924Z,63.80
2022-10-05T01:39:23.892Z,64.10
2022-10-05T01:42:01.278Z,63.90
2022-10-05T01:44:38.788Z,64.20
2022-10-05T01:47:11.402Z,63.00
2022-10-05T01:49:46.822Z,62.60
2022-10-05T01:52:28.092Z,63.50
2022-10-05T01:55:11.504Z,63.30
2022-10-05T01:57:50.075Z,63.30
2022-10-05T02:00:20.792Z,63.60
2022-10-05T02:02:51.781Z,63.00
2022-10-05T02:05:22.799Z,63.10
2022-10-05T02:07:55.435Z,66.20
2022-10-05T02:10:27.045Z,65.30
2022-10-05T02:13:00.466Z,64.10
2022-10-05T02:15:36.167Z,63.30
2022-10-05T02:18:10.295Z,63.80
2022-10-05T02:20:41.127Z,62.70
2022-10-05T02:23:13.123Z,63.60
2022-10-05T02:25:46.296Z,63.40
2022-10-05T02:28:20.265Z,63.80
2022-10-05T02:30:53.708Z,63.60
2022-10-05T02:33:28.016Z,63.20
2022-10-05T02:35:57.050Z,64.30
2022-10-05T02:38:36.810Z,64.30
2022-10-05T02:41:10.586Z,65.40
2022-10-05T02:43:46.953Z,66.80
2022-10-05T02:46:25.472Z,66.70
2022-10-05T02:49:01.436Z,65.20
2022-10-05T02:51:35.888Z,66.40
2022-10-05T02:54:16.442Z,67.60
2022-10-05T02:56:55.198Z,67.30
2022-10-05T02:59:28.019Z,64.80
2022-10-05T03:02:04.334Z,65.40
2022-10-05T03:04:40.232Z,65.50
2022-10-05T03:07:15.578Z,63.80
2022-10-05T03:09:50.310Z,64.10
2022-10-05T03:12:43.754Z,65.40
2022-10-05T03:15:22.374Z,61.90
2022-10-05T03:18:00.878Z,62.00
2022-10-05T03:20:37.614Z,61.60
2022-10-05T03:23:10.675Z,62.30
2022-10-05T03:26:06.266Z,62.70
2022-10-05T03:28:40.899Z,61.80
2022-10-05T03:31:24.579Z,63.50
2022-10-05T03:33:59.789Z,63.70
2022-10-05T03:36:34.010Z,63.10
2022-10-05T03:39:08.912Z,63.70
2022-10-05T03:41:43.820Z,62.60
2022-10-05T03:44:42.046Z,61.70
2022-10-05T03:47:15.624Z,62.10
2022-10-05T03:50:07.302Z,61.80
2022-10-05T03:52:39.992Z,62.90
2022-10-05T03:55:18.476Z,61.60
2022-10-05T03:57:50.404Z,62.20
2022-10-05T04:00:23.116Z,62.00
2022-10-05T04:02:58.283Z,63.20
2022-10-05T04:05:31.547Z,64.80
2022-10-05T04:08:04.510Z,65.80
2022-10-05T04:10:41.386Z,65.80
2022-10-05T04:13:15.224Z,65.80
2022-10-05T04:15:46.940Z,65.50
2022-10-05T04:18:24.513Z,64.80
2022-10-05T04:20:58.303Z,64.30
2022-10-05T04:23:35.784Z,63.30
2022-10-05T04:26:07.787Z,63.80
2022-10-05T04:28:44.601Z,64.40
2022-10-05T04:31:18.231Z,63.80
2022-10-05T04:33:54.548Z,63.70
2022-10-05T04:36:30.374Z,64.60
2022-10-05T04:39:09.330Z,64.20
2022-10-05T04:41:51.444Z,64.10
2022-10-05T04:44:43.052Z,65.10
2022-10-05T04:47:38.220Z,66.30
2022-10-05T04:50:18.647Z,67.10
2022-10-05T04:52:58.168Z,66.60
2022-10-05T04:55:32.746Z,66.70
2022-10-05T04:58:10.273Z,64.40
2022-10-05T05:00:49.501Z,64.30
2022-10-05T05:03:45.813Z,64.30
2022-10-05T05:06:30.210Z,62.90
2022-10-05T05:09:26.451Z,64.20
2022-10-05T05:12:14.557Z,63.40
2022-10-05T05:14:56.796Z,63.20
2022-10-05T05:17:42.507Z,63.20
2022-10-05T05:20:20.092Z,63.60
2022-10-05T05:22:54.271Z,63.50
2022-10-05T05:25:36.283Z,64.20
2022-10-05T05:28:16.678Z,62.90
2022-10-05T05:30:49.798Z,64.20
2022-10-05T05:33:23.204Z,64.20
2022-10-05T05:36:14.097Z,64.10
2022-10-05T05:38:45.988Z,62.80
2022-10-05T05:41:22.505Z,64.90
2022-10-05T05:44:05.844Z,65.60
2022-10-05T05:47:03.047Z,64.60
2022-10-05T05:49:33.227Z,65.60
2022-10-05T05:52:05.398Z,65.60
2022-10-05T05:54:39.435Z,64.40
2022-10-05T05:57:17.324Z,63.60
2022-10-05T05:59:57.661Z,63.90
2022-10-05T06:02:30.222Z,64.80
2022-10-05T06:05:03.816Z,63.70
2022-10-05T06:07:32.840Z,63.80
2022-10-05T06:10:05.922Z,64.40
2022-10-05T06:12:39.384Z,63.10
2022-10-05T06:15:29.541Z,62.60
2022-10-05T06:18:00.636Z,60.50
2022-10-05T06:20:31.971Z,60.40
2022-10-05T06:23:04.309Z,59.30
2022-10-05T06:25:40.554Z,59.60
2022-10-05T06:28:12.591Z,61.20
2022-10-05T06:30:51.382Z,62.10
2022-10-05T06:33:29.688Z,60.70
2022-10-05T06:36:13.044Z,60.50
2022-10-05T06:39:16.821Z,59.30
2022-10-05T06:41:57.769Z,59.30
2022-10-05T06:44:33.931Z,58.60
2022-10-05T06:47:08.433Z,57.90
2022-10-05T06:49:43.972Z,57.50
2022-10-05T06:52:22.048Z,57.40
2022-10-05T06:55:01.024Z,55.50
2022-10-05T06:57:48.304Z,56.80
2022-10-05T07:00:21.685Z,56.40
2022-10-05T07:02:57.208Z,57.40
2022-10-05T07:05:59.907Z,58.20
2022-10-05T07:08:41.524Z,58.10
2022-10-05T07:11:22.539Z,57.40
2022-10-05T07:14:08.068Z,57.20
2022-10-05T07:16:45.580Z,56.90
2022-10-05T07:19:25.701Z,57.70
2022-10-05T07:22:20.224Z,57.70
2022-10-05T07:24:58.157Z,59.10
2022-10-05T07:27:29.105Z,59.00
2022-10-05T07:30:02.743Z,59.50
2022-10-05T07:32:40.574Z,60.60
2022-10-05T07:35:35.894Z,62.90
2022-10-05T07:38:07.669Z,62.30
2022-10-05T07:40:42.411Z,62.60
2022-10-05T07:43:40.274Z,61.80
2022-10-05T07:46:26.400Z,62.30
2022-10-05T07:49:03.839Z,62.40
2022-10-05T07:51:37.269Z,60.50
2022-10-05T07:54:21.574Z,61.10
2022-10-05T07:56:54.181Z,62.10
2022-10-05T07:59:30.256Z,63.20
2022-10-05T08:02:06.517Z,62.70
2022-10-05T08:04:42.183Z,62.60
2022-10-05T08:07:14.621Z,61.80
2022-10-05T08:09:55.423Z,61.40
2022-10-05T08:12:35.753Z,62.00
2022-10-05T08:15:12.733Z,62.10
2022-10-05T08:17:48.992Z,63.50
2022-10-05T08:20:28.340Z,62.90
2022-10-05T08:23:01.884Z,63.30
2022-10-05T08:25:41.935Z,64.30
2022-10-05T08:28:17.998Z,64.00
2022-10-05T08:31:01.404Z,64.70
2022-10-05T08:33:36.817Z,64.10
2022-10-05T08:36:10.182Z,63.80
2022-10-05T08:38:38.518Z,65.00
2022-10-05T08:41:54.019Z,65.20
2022-10-05T08:44:56.115Z,65.20
2022-10-05T08:47:51.576Z,65.40
2022-10-05T08:50:32.198Z,64.70
2022-10-05T08:53:20.866Z,65.70
2022-10-05T08:56:04.390Z,65.20
2022-10-05T08:58:57.538Z,64.10
2022-10-05T09:01:39.898Z,65.00
2022-10-05T09:04:27.422Z,65.30
2022-10-05T09:07:21.310Z,63.50
2022-10-05T09:10:27.251Z,64.00
2022-10-05T09:13:25.165Z,63.80
2022-10-05T09:16:26.661Z,60.80
2022-10-05T09:19:35.667Z,59.40
2022-10-05T09:22:13.221Z,57.10
2022-10-05T09:24:57.872Z,54.10
2022-10-05T09:27:37.292Z,54.30
2022-10-05T09:30:27.949Z,53.20
2022-10-05T09:33:40.874Z,49.70
2022-10-05T09:36:35.602Z,50.40
2022-10-05T09:39:30.639Z,50.90
2022-10-05T09:42:34.637Z,48.30
2022-10-05T09:45:37.039Z,48.00
2022-10-05T09:48:56.044Z,46.70
2022-10-05T09:52:02.721Z,46.20
2022-10-05T09:55:02.917Z,47.70
2022-10-05T09:58:06.701Z,46.80
2022-10-05T10:01:03.804Z,46.40
2022-10-05T10:04:10.007Z,46.20
2022-10-05T10:07:03.592Z,46.60
2022-10-05T10:09:40.798Z,45.30
2022-10-05T10:12:35.909Z,43.90
2022-10-05T10:15:38.503Z,46.80
2022-10-05T10:18:28.540Z,46.90
2022-10-05T10:21:07.277Z,47.60
2022-10-05T10:24:00.293Z,46.30
2022-10-05T10:27:06.933Z,46.70
2022-10-05T10:29:48.366Z,46.10
2022-10-05T10:32:36.719Z,47.70
2022-10-05T10:35:19.905Z,47.20
2022-10-05T10:38:20.506Z,47.00
2022-10-05T10:41:25.478Z,46.40
2022-10-05T10:44:29.313Z,46.70
2022-10-05T10:47:23.601Z,47.60
2022-10-05T10:50:28.294Z,46.10
2022-10-05T10:53:12.803Z,46.50
2022-10-05T10:55:48.800Z,46.50
2022-10-05T10:58:48.963Z,45.40
2022-10-05T11:01:30.620Z,46.00
2022-10-05T11:04:29.145Z,45.80
2022-10-05T11:07:25.884Z,44.80
2022-10-05T11:10:27.359Z,44.40
2022-10-05T11:13:32.368Z,44.20
2022-10-05T11:16:23.340Z,45.30
2022-10-05T11:19:07.989Z,46.20
2022-10-05T11:21:45.674Z,44.50
2022-10-05T11:24:50.163Z,45.40
2022-10-05T11:27:46.887Z,45.20
2022-10-05T11:30:51.206Z,44.60
2022-10-05T11:33:48.345Z,43.50
2022-10-05T11:36:35.747Z,44.90
2022-10-05T11:39:38.096Z,41.50
2022-10-05T11:42:44.503Z,41.60
2022-10-05T11:45:24.920Z,42.20
2022-10-05T11:48:22.695Z,42.00
2022-10-05T11:51:10.128Z,42.50
2022-10-05T11:53:40.872Z,43.50
2022-10-05T11:56:19.233Z,44.10
2022-10-05T11:58:54.098Z,44.40
2022-10-05T12:01:28.377Z,43.70
2022-10-05T12:04:06.223Z,44.20
2022-10-05T12:06:50.863Z,45.60
2022-10-05T12:09:31.947Z,45.30
2022-10-05T12:12:10.240Z,45.70
2022-10-05T12:14:51.270Z,45.70
2022-10-05T12:17:25.856Z,46.10
2022-10-05T12:19:59.334Z,44.90
2022-10-05T12:22:32.775Z,43.90
2022-10-05T12:25:16.458Z,44.50
2022-10-05T12:27:49.155Z,43.40
2022-10-05T12:30:26.378Z,43.80
2022-10-05T12:33:07.066Z,43.40
2022-10-05T12:35:48.325Z,43.10
2022-10-05T12:38:28.415Z,43.80
2022-10-05T12:41:06.064Z,43.10
2022-10-05T12:43:45.576Z,42.90
2022-10-05T12:46:22.118Z,43.20
2022-10-05T12:49:08.988Z,44.40
2022-10-05T12:51:42.765Z,43.60
2022-10-05T12:54:17.783Z,43.50
2022-10-05T12:56:53.702Z,42.70
2022-10-05T12:59:35.446Z,42.40
2022-10-05T13:02:14.006Z,43.30
2022-10-05T13:04:51.448Z,42.60
2022-10-05T13:07:52.029Z,41.50
2022-10-05T13:10:31.465Z,41.20
2022-10-05T13:13:13.601Z,41.90
2022-10-05T13:15:52.110Z,42.60
2022-10-05T13:18:27.737Z,42.60
2022-10-05T13:21:05.102Z,42.60
2022-10-05T13:23:44.084Z,42.50
2022-10-05T13:26:16.709Z,42.40
2022-10-05T13:28:53.207Z,43.00
2022-10-05T13:31:27.882Z,42.40
2022-10-05T13:34:07.048Z,43.80
2022-10-05T13:36:45.133Z,43.80
2022-10-05T13:39:24.520Z,44.00
2022-10-05T13:42:00.662Z,43.10
2022-10-05T13:44:34.939Z,43.50
2022-10-05T13:47:09.794Z,43.20
2022-10-05T13:49:44.305Z,44.40
2022-10-05T13:52:25.789Z,44.60
2022-10-05T13:55:01.060Z,44.10
2022-10-05T13:57:45.248Z,45.20
2022-10-05T14:00:24.146Z,45.50
2022-10-05T14:02:57.694Z,43.60
2022-10-05T14:05:27.821Z,44.50
2022-10-05T14:07:58.490Z,44.50
2022-10-05T14:10:36.586Z,44.90
2022-10-05T14:13:20.668Z,44.90
2022-10-05T14:16:05.484Z,45.00
2022-10-05T14:18:38.348Z,45.40
2022-10-05T14:21:22.114Z,45.90
2022-10-05T14:23:50.245Z,45.50
2022-10-05T14:26:20.849Z,45.10
2022-10-05T14:28:59.817Z,46.10
2022-10-05T14:31:34.676Z,46.20
2022-10-05T14:34:29.813Z,46.10
2022-10-05T14:37:00.011Z,46.40
2022-10-05T14:39:29.700Z,46.60
2022-10-05T14:42:03.302Z,47.30
2022-10-05T14:47:19.358Z,47.20
2022-10-05T14:50:10.704Z,47.70
2022-10-05T14:52:41.044Z,48.10
2022-10-05T14:55:24.761Z,47.40
2022-10-05T14:58:04.105Z,48.60
2022-10-05T15:00:39.910Z,48.30
2022-10-05T15:03:21.564Z,49.00
2022-10-05T15:05:53.590Z,48.20
2022-10-05T15:08:41.382Z,48.80
2022-10-05T15:11:13.162Z,49.00
2022-10-05T15:13:44.554Z,49.40
2022-10-05T15:16:19.758Z,49.90
2022-10-05T15:18:56.631Z,49.10
2022-10-05T15:21:54.471Z,49.60
2022-10-05T15:24:26.393Z,49.90
2022-10-05T15:26:57.433Z,49.90
2022-10-05T15:29:42.350Z,50.60
2022-10-05T15:32:23.102Z,49.90
2022-10-05T15:35:10.737Z,49.80
2022-10-05T15:37:44.563Z,50.00
2022-10-05T15:40:21.502Z,50.80
2022-10-05T15:42:52.673Z,51.00
2022-10-05T15:45:29.887Z,51.20
2022-10-05T15:48:02.545Z,51.20
2022-10-05T15:50:36.150Z,51.30
2022-10-05T15:53:13.034Z,51.70
2022-10-05T15:55:48.392Z,50.90
2022-10-05T15:58:44.460Z,51.50
2022-10-05T16:01:16.581Z,51.40
2022-10-05T16:03:51.509Z,51.40
2022-10-05T16:06:51.969Z,50.70
2022-10-05T16:09:41.937Z,50.90
2022-10-05T16:12:23.290Z,50.70
2022-10-05T16:15:04.650Z,50.70
2022-10-05T16:17:47.264Z,50.70
2022-10-05T16:20:26.001Z,50.40
2022-10-05T16:23:02.552Z,50.30
2022-10-05T16:26:30.694Z,50.80
2022-10-05T16:29:16.419Z,51.00
2022-10-05T16:32:20.871Z,51.00
2022-10-05T16:35:05.761Z,51.00
2022-10-05T16:42:03.460Z,51.60
2022-10-05T16:44:44.323Z,51.70
2022-10-05T16:47:35.566Z,52.10
2022-10-05T16:50:17.888Z,52.40
2022-10-05T16:52:51.499Z,52.70
2022-10-05T16:55:25.608Z,52.80
2022-10-05T16:57:56.652Z,52.80
2022-10-05T17:00:31.740Z,53.20
2022-10-05T17:03:14.256Z,53.70
2022-10-05T17:06:04.362Z,55.20
2022-10-05T17:08:49.256Z,56.20
2022-10-05T17:11:29.620Z,56.50
2022-10-05T17:14:20.149Z,57.30
2022-10-05T17:16:59.190Z,57.60
2022-10-05T17:19:40.223Z,58.40
2022-10-05T17:22:13.107Z,58.90
2022-10-05T17:24:53.130Z,59.20
2022-10-05T17:27:32.374Z,59.60
2022-10-05T17:30:23.468Z,60.10
2022-10-05T17:33:04.609Z,60.60
2022-10-05T17:35:50.875Z,61.30
2022-10-05T17:38:22.048Z,59.90
2022-10-05T17:41:16.795Z,60.30
2022-10-05T17:44:24.738Z,61.90
2022-10-05T17:46:57.525Z,62.30
2022-10-05T17:50:18.066Z,63.00
2022-10-05T17:53:26.184Z,63.00
2022-10-05T17:56:04.265Z,63.20
2022-10-05T17:59:03.661Z,62.40
2022-10-05T18:01:34.439Z,63.70
2022-10-05T18:04:38.660Z,63.50
2022-10-05T18:07:27.534Z,64.50
2022-10-05T18:10:22.366Z,65.00
2022-10-05T18:12:51.802Z,63.20
2022-10-05T18:15:48.671Z,66.20
2022-10-05T18:18:52.828Z,67.80
2022-10-05T18:21:35.797Z,68.70
2022-10-05T18:24:29.614Z,70.00
2022-10-05T18:27:30.777Z,70.30
2022-10-05T18:30:07.697Z,67.10
2022-10-05T18:32:45.428Z,67.60
2022-10-05T18:35:17.529Z,68.10
2022-10-05T18:37:58.786Z,70.50
2022-10-05T18:40:40.010Z,70.50
2022-10-05T18:43:26.964Z,71.40
2022-10-05T18:46:07.037Z,69.60
2022-10-05T18:48:46.764Z,69.60
2022-10-05T18:51:22.567Z,69.10
2022-10-05T18:54:04.223Z,68.10
2022-10-05T18:56:39.361Z,67.10
2022-10-05T18:59:25.317Z,68.40
2022-10-05T19:02:08.350Z,66.60
2022-10-05T19:04:46.531Z,64.30
2022-10-05T19:07:27.301Z,66.70
2022-10-05T19:10:06.065Z,66.40
2022-10-05T19:12:51.645Z,64.50
2022-10-05T19:15:28.807Z,68.10
2022-10-05T19:18:28.808Z,68.10
2022-10-05T19:21:03.751Z,68.40
2022-10-05T19:23:46.693Z,66.10
2022-10-05T19:26:18.801Z,67.80
2022-10-05T19:28:58.029Z,67.40
2022-10-05T19:31:34.911Z,66.50
2022-10-05T19:34:22.136Z,67.30
2022-10-05T19:37:02.069Z,67.80
2022-10-05T19:39:38.282Z,69.60
2022-10-05T19:42:24.618Z,68.60
2022-10-05T19:45:04.547Z,68.20
2022-10-05T19:47:47.294Z,67.30
2022-10-05T19:50:27.110Z,66.60
2022-10-05T19:53:04.123Z,66.60
2022-10-05T19:55:41.536Z,68.60
2022-10-05T19:58:21.191Z,68.60
2022-10-05T20:01:01.496Z,67.20
2022-10-05T20:03:31.081Z,66.70
2022-10-05T20:06:00.387Z,70.20
2022-10-05T20:08:37.336Z,73.50
2022-10-05T20:11:07.758Z,74.20
2022-10-05T20:13:36.168Z,73.80
2022-10-05T20:16:37.239Z,70.60
2022-10-05T20:19:23.653Z,69.10
2022-10-05T20:21:53.503Z,68.70
2022-10-05T20:24:23.510Z,67.40
2022-10-05T20:27:16.105Z,66.10
2022-10-05T20:29:45.564Z,66.10
2022-10-05T20:32:17.743Z,69.50
2022-10-05T20:34:48.411Z,71.60
2022-10-05T20:37:18.565Z,73.50
2022-10-05T20:39:47.284Z,73.00
2022-10-05T20:42:15.360Z,73.00
2022-10-05T20:44:43.671Z,69.80
2022-10-05T20:47:11.868Z,71.40
2022-10-05T20:49:41.990Z,68.70
2022-10-05T20:52:11.687Z,68.80
2022-10-05T20:54:40.292Z,71.70
2022-10-05T20:57:09.050Z,72.80
2022-10-05T20:59:37.515Z,73.20
2022-10-05T21:02:06.299Z,71.00
2022-10-05T21:04:40.841Z,70.30
2022-10-05T21:07:10.738Z,69.70
2022-10-05T21:09:40.847Z,68.20
2022-10-05T21:12:08.775Z,69.30
2022-10-05T21:14:37.625Z,69.10
2022-10-05T21:17:06.687Z,71.10
2022-10-05T21:19:38.280Z,70.10
2022-10-05T21:22:07.628Z,69.00
2022-10-05T21:24:38.242Z,68.50
2022-10-05T21:27:06.461Z,69.20
2022-10-05T21:29:35.694Z,70.00
2022-10-05T21:32:03.756Z,69.80
2022-10-05T21:34:31.694Z,68.20
2022-10-05T21:36:59.568Z,67.50
2022-10-05T21:39:27.515Z,69.70
2022-10-05T21:41:57.048Z,72.40
2022-10-05T21:44:24.971Z,72.40
2022-10-05T21:46:53.194Z,71.70
2022-10-05T21:49:21.301Z,72.00
2022-10-05T21:51:49.332Z,74.20
2022-10-05T21:54:21.285Z,76.50
2022-10-05T21:56:52.557Z,76.50
2022-10-05T21:59:25.024Z,76.30
2022-10-05T22:01:52.890Z,76.10
2022-10-05T22:04:21.258Z,75.30
2022-10-05T22:06:49.262Z,72.70
2022-10-05T22:09:17.163Z,72.60
2022-10-05T22:11:47.657Z,71.30
2022-10-05T22:14:16.716Z,72.90
2022-10-05T22:16:46.348Z,74.40
2022-10-05T22:19:17.513Z,75.20
2022-10-05T22:21:45.369Z,75.40
2022-10-05T22:24:13.264Z,75.40
2022-10-05T22:26:42.768Z,76.10
2022-10-05T22:29:10.713Z,75.00
2022-10-05T22:31:39.395Z,73.00
2022-10-05T22:34:08.654Z,74.50
2022-10-05T22:36:37.304Z,74.70
2022-10-05T22:39:05.212Z,74.70
2022-10-05T22:41:33.133Z,74.80
2022-10-05T22:44:01.334Z,74.30
2022-10-05T22:46:29.308Z,73.80
2022-10-05T22:48:57.857Z,73.00
2022-10-05T22:51:27.154Z,73.30
2022-10-05T22:53:55.164Z,72.80
2022-10-05T22:56:23.023Z,72.60
2022-10-05T22:58:51.038Z,72.60
2022-10-05T23:01:20.539Z,71.10
2022-10-05T23:03:48.992Z,70.30
2022-10-05T23:06:18.856Z,69.20
2022-10-05T23:08:48.456Z,68.00
2022-10-05T23:11:18.796Z,65.70
2022-10-05T23:13:46.663Z,64.10
2022-10-05T23:16:17.383Z,67.50
2022-10-05T23:18:46.709Z,68.90
2022-10-05T23:21:14.749Z,68.50
2022-10-05T23:23:47.223Z,68.50
2022-10-05T23:26:17.870Z,68.90
2022-10-05T23:28:47.427Z,69.60
2022-10-05T23:31:17.076Z,70.20
2022-10-05T23:33:45.372Z,69.10
2022-10-05T23:36:16.129Z,69.80
2022-10-05T23:38:44.461Z,71.20
2022-10-05T23:41:14.734Z,72.30
2022-10-05T23:43:44.293Z,70.80
2022-10-05T23:46:13.044Z,71.40
2022-10-05T23:48:41.077Z,71.40
2022-10-05T23:51:10.308Z,72.60
2022-10-05T23:53:38.571Z,72.60
2022-10-05T23:56:06.799Z,73.00
2022-10-05T23:58:34.699Z,70.50
